Time;durP1;ratioP1;P1;durP2;ratioP2;P2;SDS_P1;SDS_P2;PMS_P1;PMS_P2;Temp;Humidity;BMP_temperature;BMP_pressure;BME280_temperature;BME280_humidity;BME280_pressure;Samples;Min_cycle;Max_cycle;Signal;HPM_P1;HPM_P2
2024/02/28 00:00:27;;;;;;;48.83;19.88;;;;;;;7.54;55.66;102085.41;4949176;28;96794;-90
2024/02/28 00:02:53;;;;;;;46.17;18.27;;;;;;;7.54;55.79;102075.94;4951583;28;96803;-90
2024/02/28 00:05:18;;;;;;;47.55;19.05;;;;;;;7.54;55.77;102075.03;4952362;28;99314;-89
2024/02/28 00:07:45;;;;;;;44.78;19.85;;;;;;;7.54;55.62;102078.53;4954830;28;100177;-90
2024/02/28 00:10:11;;;;;;;46.95;18.48;;;;;;;7.54;55.97;102077.63;4946106;28;96888;-90
2024/02/28 00:12:37;;;;;;;50.17;18.80;;;;;;;7.52;55.75;102072.38;4951571;28;97111;-90
2024/02/28 00:15:05;;;;;;;50.33;19.80;;;;;;;7.51;55.64;102073.19;4964279;28;100409;-90
2024/02/28 00:17:30;;;;;;;47.75;19.38;;;;;;;7.49;55.71;102067.03;4952811;28;99778;-90
2024/02/28 00:19:56;;;;;;;44.88;19.27;;;;;;;7.47;55.60;102083.34;4968607;28;96734;-89
2024/02/28 00:22:21;;;;;;;42.42;17.15;;;;;;;7.43;55.61;102091.03;4951614;28;96843;-90
2024/02/28 00:24:49;;;;;;;45.03;18.05;;;;;;;7.43;55.62;102092.72;4928124;28;100355;-90
2024/02/28 00:27:15;;;;;;;47.33;19.80;;;;;;;7.37;55.43;102090.72;4936610;28;98725;-90
2024/02/28 00:29:40;;;;;;;48.15;17.73;;;;;;;7.35;55.71;102087.19;4956816;28;96930;-90
2024/02/28 00:32:13;;;;;;;45.08;19.40;;;;;;;7.32;55.42;102089.63;4950529;28;96773;-91
2024/02/28 00:34:38;;;;;;;49.80;20.67;;;;;;;7.26;55.48;102085.88;4963223;28;100666;-90
2024/02/28 00:37:04;;;;;;;48.42;19.02;;;;;;;7.22;55.44;102090.03;4955892;28;100856;-89
2024/02/28 00:39:29;;;;;;;48.53;19.75;;;;;;;7.18;55.42;102085.50;4935452;28;96895;-90
2024/02/28 00:41:55;;;;;;;50.92;21.33;;;;;;;7.13;55.53;102090.50;4950163;28;96739;-90
2024/02/28 00:44:21;;;;;;;50.55;19.48;;;;;;;7.10;55.70;102087.75;4953501;28;99187;-90
2024/02/28 00:46:49;;;;;;;42.58;18.55;;;;;;;7.07;55.69;102079.81;4956182;28;100227;-90
2024/02/28 00:49:15;;;;;;;52.85;19.48;;;;;;;7.04;55.87;102082.25;4939515;28;96772;-90
2024/02/28 00:51:40;;;;;;;51.28;18.55;;;;;;;6.99;55.84;102079.47;4941246;28;96791;-90
2024/02/28 00:54:06;;;;;;;48.90;18.17;;;;;;;6.98;55.64;102085.47;4940316;28;100526;-91
2024/02/28 00:56:31;;;;;;;48.92;20.13;;;;;;;6.96;55.82;102081.03;4974322;28;99204;-90
2024/02/28 00:58:57;;;;;;;46.78;18.98;;;;;;;6.94;55.95;102087.88;4972337;28;97339;-90
2024/02/28 01:01:22;;;;;;;43.17;17.13;;;;;;;6.91;55.88;102091.19;4970855;28;96933;-89
2024/02/28 01:03:48;;;;;;;46.95;19.23;;;;;;;6.88;55.86;102083.28;4948551;28;97864;-91
2024/02/28 01:06:15;;;;;;;51.78;20.42;;;;;;;6.85;55.70;102083.13;4951016;28;100275;-90
2024/02/28 01:08:41;;;;;;;49.13;20.25;;;;;;;6.81;55.99;102082.09;4937746;28;96808;-90
2024/02/28 01:11:06;;;;;;;49.60;20.42;;;;;;;6.79;55.78;102082.81;4954872;28;96876;-90
2024/02/28 01:13:32;;;;;;;47.70;19.95;;;;;;;6.76;55.79;102088.75;4950581;28;100471;-91
2024/02/28 01:15:59;;;;;;;48.85;18.10;;;;;;;6.73;55.89;102082.53;4951594;28;97403;-90
2024/02/28 01:18:30;;;;;;;44.90;19.65;;;;;;;6.69;56.03;102081.50;4954040;28;96812;-90
2024/02/28 01:20:59;;;;;;;45.60;16.40;;;;;;;6.65;55.85;102077.88;4948723;28;96787;-89
2024/02/28 01:23:27;;;;;;;45.03;18.35;;;;;;;6.60;55.78;102078.47;4952506;28;99332;-89
2024/02/28 01:25:52;;;;;;;44.80;16.42;;;;;;;6.53;55.73;102074.69;4967321;28;97858;-90
2024/02/28 01:28:18;;;;;;;45.33;16.90;;;;;;;6.48;55.84;102077.03;4952315;28;96866;-90
2024/02/28 01:30:43;;;;;;;38.35;15.00;;;;;;;6.44;55.75;102071.66;4951492;28;96833;-90
2024/02/28 01:33:09;;;;;;;43.88;18.67;;;;;;;6.39;55.82;102071.41;4955346;28;97998;-91
2024/02/28 01:35:34;;;;;;;41.28;17.30;;;;;;;6.34;55.57;102072.88;4955417;28;100297;-90
2024/02/28 01:38:00;;;;;;;42.88;17.73;;;;;;;6.29;55.67;102067.50;4951960;28;96837;-91
2024/02/28 01:40:25;;;;;;;43.60;18.08;;;;;;;6.23;55.67;102069.75;4936398;28;96875;-90
2024/02/28 01:42:50;;;;;;;38.15;15.90;;;;;;;6.18;55.87;102068.63;4960744;28;97768;-90
2024/02/28 01:45:19;;;;;;;43.72;17.50;;;;;;;6.12;55.89;102065.75;4939029;28;99206;-90
2024/02/28 01:47:45;;;;;;;39.90;15.02;;;;;;;6.09;55.72;102068.19;4947941;28;96860;-90
2024/02/28 01:50:13;;;;;;;40.67;17.25;;;;;;;6.05;55.64;102074.91;4936019;28;96736;-90
2024/02/28 01:52:40;;;;;;;41.47;16.38;;;;;;;6.02;55.68;102063.50;4949108;28;100233;-90
2024/02/28 01:55:06;;;;;;;41.75;15.48;;;;;;;5.98;55.63;102069.34;4951739;28;100071;-90
2024/02/28 01:57:36;;;;;;;39.70;16.67;;;;;;;5.95;55.89;102062.25;4956493;28;96777;-90
2024/02/28 02:00:03;;;;;;;46.35;18.50;;;;;;;5.90;55.76;102062.03;4954866;28;96660;-90
2024/02/28 02:02:30;;;;;;;50.50;16.55;;;;;;;5.87;55.57;102063.59;4950898;28;97158;-89
2024/02/28 02:04:58;;;;;;;42.00;17.63;;;;;;;5.84;55.77;102068.59;4950408;28;99676;-91
2024/02/28 02:07:24;;;;;;;44.67;16.45;;;;;;;5.82;55.86;102070.22;4954843;28;96826;-90
2024/02/28 02:09:50;;;;;;;43.25;17.23;;;;;;;5.78;56.13;102065.72;4973309;28;96799;-90
2024/02/28 02:12:16;;;;;;;38.53;16.90;;;;;;;5.74;55.92;102067.25;4953954;28;99605;-91
2024/02/28 02:14:53;;;;;;;42.42;17.13;;;;;;;5.73;55.78;102076.69;4945896;28;99859;-90
2024/02/28 02:17:21;;;;;;;40.33;15.73;;;;;;;5.71;55.99;102077.44;4938886;28;96781;-90
2024/02/28 02:19:47;;;;;;;44.53;16.67;;;;;;;5.69;55.82;102079.94;4933270;28;96951;-91
2024/02/28 02:22:20;;;;;;;45.60;15.70;;;;;;;5.66;56.07;102077.19;4948783;28;100258;-91
2024/02/28 02:24:45;;;;;;;41.95;16.50;;;;;;;5.64;55.89;102075.34;4932598;28;100256;-91
2024/02/28 02:27:11;;;;;;;40.05;16.17;;;;;;;5.64;56.00;102070.16;4937381;28;96737;-90
2024/02/28 02:29:36;;;;;;;44.80;16.48;;;;;;;5.62;56.17;102074.38;4961189;28;96842;-90
2024/02/28 02:32:02;;;;;;;43.42;17.77;;;;;;;5.60;55.91;102074.28;4961598;28;100556;-90
2024/02/28 02:34:27;;;;;;;42.13;17.40;;;;;;;5.59;56.04;102081.97;4927122;28;100169;-89
2024/02/28 02:36:53;;;;;;;41.38;16.95;;;;;;;5.57;56.07;102075.81;4962520;28;96764;-90
2024/02/28 02:39:18;;;;;;;48.78;18.63;;;;;;;5.53;56.09;102077.38;4951422;28;96878;-90
2024/02/28 02:41:47;;;;;;;45.97;18.88;;;;;;;5.53;56.22;102072.19;4925445;28;100646;-90
2024/02/28 02:44:18;;;;;;;43.72;17.00;;;;;;;5.51;56.27;102068.63;4950979;28;100330;-90
2024/02/28 02:46:44;;;;;;;43.85;18.30;;;;;;;5.49;56.44;102070.22;4926100;28;96795;-90
2024/02/28 02:49:09;;;;;;;44.72;16.00;;;;;;;5.49;56.48;102065.97;4951346;28;96920;-90
2024/02/28 02:51:35;;;;;;;43.40;15.52;;;;;;;5.50;56.55;102067.72;4951364;28;100307;-90
2024/02/28 02:54:01;;;;;;;38.63;14.57;;;;;;;5.51;56.67;102066.03;4937712;28;100315;-91
2024/02/28 02:56:26;;;;;;;39.47;16.48;;;;;;;5.51;56.85;102063.47;4938129;28;96833;-90
2024/02/28 02:58:52;;;;;;;36.65;14.82;;;;;;;5.53;56.64;102077.38;4930501;28;96896;-90
2024/02/28 03:01:19;;;;;;;39.97;16.38;;;;;;;5.53;56.60;102070.47;4957710;28;99206;-91
2024/02/28 03:03:45;;;;;;;39.17;16.10;;;;;;;5.54;56.46;102071.38;4939338;28;99917;-90
2024/02/28 03:06:10;;;;;;;41.30;15.68;;;;;;;5.53;56.41;102070.47;4949260;28;96949;-90
2024/02/28 03:08:36;;;;;;;47.20;18.17;;;;;;;5.53;56.51;102070.47;4956008;28;96947;-89
2024/02/28 03:11:04;;;;;;;43.42;17.30;;;;;;;5.52;56.44;102067.81;4934764;28;100453;-90
2024/02/28 03:13:29;;;;;;;46.25;18.73;;;;;;;5.52;56.29;102068.69;4954061;28;99367;-91
2024/02/28 03:15:55;;;;;;;43.42;16.95;;;;;;;5.52;56.60;102060.94;4950611;28;96786;-90
2024/02/28 03:18:23;;;;;;;45.83;17.67;;;;;;;5.52;56.54;102055.75;4954764;28;96986;-90
2024/02/28 03:20:48;;;;;;;44.90;15.98;;;;;;;5.52;56.69;102050.56;4959119;28;99988;-91
2024/02/28 03:23:14;;;;;;;38.83;17.38;;;;;;;5.54;56.66;102058.41;4955545;28;97442;-90
2024/02/28 03:25:39;;;;;;;41.75;18.15;;;;;;;5.56;56.88;102051.63;4953985;28;96802;-91
2024/02/28 03:28:05;;;;;;;37.75;16.08;;;;;;;5.58;56.80;102054.28;4957329;28;96967;-90
2024/02/28 03:30:30;;;;;;;40.45;16.40;;;;;;;5.59;57.14;102056.97;4941344;28;100267;-90
2024/02/28 03:32:56;;;;;;;37.00;14.30;;;;;;;5.61;56.88;102059.63;4957930;28;97775;-91
2024/02/28 03:35:21;;;;;;;38.03;15.32;;;;;;;5.65;57.15;102061.56;4971085;28;96779;-91
2024/02/28 03:37:47;;;;;;;42.70;16.77;;;;;;;5.66;57.19;102068.53;4957851;28;96922;-90
2024/02/28 03:40:14;;;;;;;34.40;15.20;;;;;;;5.70;57.46;102061.03;4953548;28;97892;-90
2024/02/28 03:42:40;;;;;;;37.17;16.38;;;;;;;5.76;57.45;102056.94;4950744;28;100081;-91
2024/02/28 03:45:06;;;;;;;38.65;16.85;;;;;;;5.81;57.67;102059.00;4954309;28;96786;-91
2024/02/28 03:47:31;;;;;;;39.50;16.17;;;;;;;5.86;57.57;102061.78;4948101;28;96844;-90
2024/02/28 03:49:57;;;;;;;35.15;16.15;;;;;;;5.90;57.79;102051.69;4953286;28;100305;-90
2024/02/28 03:52:23;;;;;;;38.65;15.55;;;;;;;5.98;57.79;102053.81;4954609;28;100460;-90
2024/02/28 03:54:51;;;;;;;32.45;14.95;;;;;;;6.05;57.96;102055.91;4937930;28;96962;-91
2024/02/28 03:57:20;;;;;;;36.80;17.15;;;;;;;6.12;57.90;102049.31;4946523;28;96935;-90
2024/02/28 03:59:53;;;;;;;33.83;16.40;;;;;;;6.18;58.20;102055.69;4935223;28;99443;-90
2024/02/28 04:02:18;;;;;;;38.97;16.13;;;;;;;6.25;58.09;102056.88;4959319;28;97532;-90
2024/02/28 04:04:44;;;;;;;36.17;17.83;;;;;;;6.31;58.33;102057.19;4952096;28;96697;-90
2024/02/28 04:07:09;;;;;;;34.70;17.10;;;;;;;6.38;58.17;102063.56;4952091;28;97049;-90
2024/02/28 04:09:34;;;;;;;30.85;14.02;;;;;;;6.44;58.24;102063.88;4947623;28;100595;-90
2024/02/28 04:12:00;;;;;;;30.50;13.68;;;;;;;6.51;58.01;102065.06;4945302;28;100358;-90
2024/02/28 04:14:25;;;;;;;31.52;16.17;;;;;;;6.54;58.18;102060.91;4951014;28;96772;-91
2024/02/28 04:16:51;;;;;;;30.25;14.52;;;;;;;6.60;58.14;102063.78;4951125;28;96795;-90
2024/02/28 04:19:19;;;;;;;28.10;13.23;;;;;;;6.64;58.10;102063.13;4936662;28;100678;-90
2024/02/28 04:21:45;;;;;;;32.13;15.75;;;;;;;6.70;58.04;102066.81;4953456;28;99773;-90
2024/02/28 04:24:10;;;;;;;32.60;16.00;;;;;;;6.75;58.16;102065.34;4965660;28;96765;-90
2024/02/28 04:26:36;;;;;;;32.58;15.60;;;;;;;6.80;58.20;102063.84;4952539;28;96819;-90
2024/02/28 04:29:04;;;;;;;28.33;12.88;;;;;;;6.84;58.06;102073.56;4945495;28;100407;-90
2024/02/28 04:31:30;;;;;;;27.88;15.38;;;;;;;6.89;58.17;102064.28;4946042;28;100307;-90
2024/02/28 04:33:58;;;;;;;29.08;13.48;;;;;;;6.94;58.17;102064.53;4930495;28;96787;-90
2024/02/28 04:36:24;;;;;;;29.38;16.08;;;;;;;6.96;58.07;102061.16;4969165;28;96848;-90
2024/02/28 04:38:49;;;;;;;29.35;14.70;;;;;;;7.02;58.06;102065.75;4929337;28;99135;-90
2024/02/28 04:41:15;;;;;;;31.40;14.95;;;;;;;7.05;58.28;102061.59;4936433;28;99954;-90
2024/02/28 04:43:40;;;;;;;28.30;13.55;;;;;;;7.08;58.09;102067.72;4966732;28;96808;-90
2024/02/28 04:46:06;;;;;;;28.88;13.82;;;;;;;7.11;58.47;102073.06;4932735;28;96795;-90
2024/02/28 04:48:31;;;;;;;27.40;13.60;;;;;;;7.14;58.20;102078.41;4957715;28;100673;-90
2024/02/28 04:50:57;;;;;;;26.15;13.43;;;;;;;7.17;58.20;102075.97;4950364;28;99183;-91
2024/02/28 04:53:22;;;;;;;29.80;15.75;;;;;;;7.19;58.17;102085.59;4951529;28;96962;-90
2024/02/28 04:55:50;;;;;;;29.50;14.30;;;;;;;7.21;58.14;102081.34;4953422;28;96905;-90
2024/02/28 04:58:16;;;;;;;28.08;14.00;;;;;;;7.25;58.15;102087.56;4945412;28;99940;-90
2024/02/28 05:00:41;;;;;;;26.58;13.35;;;;;;;7.29;58.14;102091.19;4966572;28;99584;-90
2024/02/28 05:03:06;;;;;;;28.50;14.18;;;;;;;7.32;58.20;102087.03;4952396;28;96864;-91
2024/02/28 05:05:32;;;;;;;29.95;14.27;;;;;;;7.37;58.39;102087.25;4938462;28;96804;-90
2024/02/28 05:07:57;;;;;;;31.80;14.38;;;;;;;7.39;58.03;102086.50;4956663;28;100315;-90
2024/02/28 05:10:23;;;;;;;27.55;13.85;;;;;;;7.42;58.03;102090.94;4934058;28;98973;-90
2024/02/28 05:12:48;;;;;;;29.90;14.13;;;;;;;7.42;58.03;102088.34;4951709;28;96993;-90
2024/02/28 05:15:14;;;;;;;30.75;13.40;;;;;;;7.43;58.08;102096.22;4951049;28;97015;-90
2024/02/28 05:17:39;;;;;;;26.95;13.30;;;;;;;7.43;58.19;102096.22;4933401;28;99152;-90
2024/02/28 05:20:06;;;;;;;28.75;14.40;;;;;;;7.47;58.28;102101.53;4927183;28;100829;-91
2024/02/28 05:22:31;;;;;;;26.75;15.38;;;;;;;7.49;58.28;102103.38;4945855;28;96855;-90
2024/02/28 05:24:56;;;;;;;26.95;14.25;;;;;;;7.52;58.19;102105.22;4932469;28;97010;-91
2024/02/28 05:27:22;;;;;;;35.25;16.33;;;;;;;7.56;58.28;102087.25;4947601;28;100488;-90
2024/02/28 05:29:47;;;;;;;28.25;13.45;;;;;;;7.58;58.08;102084.75;4936060;28;100218;-90
2024/02/28 05:32:20;;;;;;;32.38;15.75;;;;;;;7.59;58.26;102082.22;4949496;28;96798;-90
2024/02/28 05:34:49;;;;;;;31.65;15.77;;;;;;;7.60;58.31;102083.09;4951507;28;96858;-90
2024/02/28 05:37:19;;;;;;;26.83;13.50;;;;;;;7.60;57.86;102083.09;4942247;28;100184;-91
2024/02/28 05:39:44;;;;;;;27.92;15.52;;;;;;;7.60;58.09;102078.78;4934799;28;99396;-90
2024/02/28 05:42:10;;;;;;;28.92;15.80;;;;;;;7.59;58.11;102083.91;4935389;28;96744;-89
2024/02/28 05:44:35;;;;;;;28.75;16.05;;;;;;;7.60;58.01;102086.56;4935343;28;96881;-90
2024/02/28 05:47:03;;;;;;;26.48;13.63;;;;;;;7.60;58.06;102089.16;4946293;28;100275;-90
2024/02/28 05:49:29;;;;;;;29.88;15.60;;;;;;;7.60;58.00;102083.97;4950861;28;100148;-90
2024/02/28 05:51:54;;;;;;;28.77;13.65;;;;;;;7.60;58.10;102085.69;4950388;28;96765;-90
2024/02/28 05:54:20;;;;;;;30.30;16.15;;;;;;;7.59;58.24;102084.81;4967161;28;96723;-91
2024/02/28 05:56:45;;;;;;;27.58;15.40;;;;;;;7.59;58.08;102079.63;4946293;28;96884;-90
2024/02/28 05:59:11;;;;;;;27.30;13.70;;;;;;;7.60;57.99;102083.97;4950350;28;100302;-90
2024/02/28 06:01:37;;;;;;;31.33;15.38;;;;;;;7.61;58.02;102087.44;4931595;28;96752;-90
2024/02/28 06:04:03;;;;;;;27.95;15.25;;;;;;;7.61;58.38;102093.56;4926615;28;97051;-90
2024/02/28 06:06:29;;;;;;;28.08;15.50;;;;;;;7.60;58.33;102086.56;4932762;28;100220;-91
2024/02/28 06:08:56;;;;;;;27.95;13.98;;;;;;;7.61;58.34;102096.16;4934963;28;99252;-91
2024/02/28 06:11:21;;;;;;;29.42;15.65;;;;;;;7.61;58.33;102090.97;4948083;28;96906;-90
2024/02/28 06:13:49;;;;;;;26.83;15.30;;;;;;;7.62;58.41;102092.72;4947021;28;97038;-90
2024/02/28 06:16:16;;;;;;;27.30;14.48;;;;;;;7.66;58.76;102092.88;4950904;28;100071;-90
2024/02/28 06:18:45;;;;;;;25.58;13.75;;;;;;;7.68;58.40;102084.31;4945248;28;99330;-90
2024/02/28 06:21:10;;;;;;;28.67;14.68;;;;;;;7.74;58.75;102096.69;4938257;28;96921;-91
2024/02/28 06:23:36;;;;;;;27.05;13.48;;;;;;;7.78;58.70;102094.28;4955086;28;96806;-90
2024/02/28 06:26:01;;;;;;;28.58;13.30;;;;;;;7.82;58.62;102090.13;4950686;28;99120;-91
2024/02/28 06:28:27;;;;;;;27.83;15.65;;;;;;;7.84;58.42;102098.84;4951185;28;100571;-91
2024/02/28 06:30:52;;;;;;;28.02;13.88;;;;;;;7.87;58.93;102100.72;4947322;28;96844;-92
2024/02/28 06:33:18;;;;;;;27.17;14.25;;;;;;;7.91;58.77;102106.09;4925475;28;96890;-90
2024/02/28 06:35:44;;;;;;;27.95;14.00;;;;;;;7.94;58.76;102102.75;4952139;28;100260;-90
2024/02/28 06:38:09;;;;;;;26.83;13.65;;;;;;;7.96;58.67;102111.50;4971021;28;100016;-91
2024/02/28 06:40:38;;;;;;;27.95;15.30;;;;;;;7.99;58.97;102112.53;4950451;28;96870;-91
2024/02/28 06:43:04;;;;;;;30.63;16.88;;;;;;;8.03;58.86;102113.53;4945807;28;97061;-91
2024/02/28 06:45:30;;;;;;;28.88;15.13;;;;;;;8.07;58.62;102125.84;4953483;28;99031;-90
2024/02/28 06:48:00;;;;;;;29.77;14.05;;;;;;;8.10;58.85;102122.50;4950736;28;99733;-91
2024/02/28 06:50:49;;;;;;;29.80;16.55;;;;;;;8.09;58.82;102125.91;4958924;28;96671;-93
2024/02/28 06:53:15;;;;;;;28.35;14.52;;;;;;;8.12;58.81;102134.72;4901414;28;97050;-91
2024/02/28 06:55:41;;;;;;;30.48;15.10;;;;;;;8.12;58.89;102139.94;4904457;28;99423;-91
2024/02/28 06:58:06;;;;;;;27.60;15.85;;;;;;;8.15;58.85;102153.06;4906904;28;99232;-91
2024/02/28 07:00:34;;;;;;;28.40;15.68;;;;;;;8.19;58.99;102147.16;4906813;28;96889;-92
2024/02/28 07:03:00;;;;;;;28.85;15.30;;;;;;;8.23;59.24;102149.91;4886220;28;96850;-92
2024/02/28 07:05:25;;;;;;;30.63;16.25;;;;;;;8.25;59.08;102149.13;4905077;28;100496;-91
2024/02/28 07:07:51;;;;;;;29.63;17.52;;;;;;;8.30;59.21;102142.44;4902753;28;100275;-91
2024/02/28 07:10:17;;;;;;;28.90;16.55;;;;;;;8.36;59.19;102149.63;4885024;28;96784;-91
2024/02/28 07:12:48;;;;;;;29.40;14.23;;;;;;;8.41;59.10;102153.28;4901530;28;97122;-91
2024/02/28 07:15:13;;;;;;;35.33;18.25;;;;;;;8.44;58.89;102155.16;4882967;28;100331;-91
2024/02/28 07:17:39;;;;;;;36.13;17.33;;;;;;;8.46;59.11;102149.19;4883235;28;100085;-90
2024/02/28 07:20:05;;;;;;;28.52;14.32;;;;;;;8.50;59.12;102153.72;4900630;28;96750;-92
2024/02/28 07:22:31;;;;;;;29.75;16.45;;;;;;;8.52;59.08;102149.47;4899363;28;96891;-91
2024/02/28 07:24:56;;;;;;;31.60;15.43;;;;;;;8.53;59.19;102155.56;4885406;28;99937;-90
2024/02/28 07:27:24;;;;;;;29.63;16.10;;;;;;;8.54;59.12;102153.03;4890995;28;100061;-90
2024/02/28 07:29:49;;;;;;;31.48;16.67;;;;;;;8.57;59.21;102157.44;4911625;28;96777;-91
2024/02/28 07:32:15;;;;;;;31.10;15.10;;;;;;;8.58;59.09;102160.13;4951754;28;96875;-90
2024/02/28 07:34:40;;;;;;;30.85;17.02;;;;;;;8.58;59.30;102162.72;4939720;28;100373;-90
2024/02/28 07:37:09;;;;;;;32.97;16.23;;;;;;;8.61;59.25;102171.47;4956187;28;100710;-91
2024/02/28 07:39:37;;;;;;;29.85;15.07;;;;;;;8.64;59.22;102169.88;4966879;28;96864;-90
2024/02/28 07:42:02;;;;;;;30.25;14.63;;;;;;;8.64;59.11;102180.28;4967550;28;96784;-90
2024/02/28 07:44:30;;;;;;;31.10;16.77;;;;;;;8.61;59.09;102187.06;4955911;28;99817;-90
2024/02/28 07:46:58;;;;;;;30.67;16.95;;;;;;;8.57;58.94;102184.38;4955225;28;97530;-90
2024/02/28 07:49:23;;;;;;;30.30;16.75;;;;;;;8.56;59.04;102182.56;4969052;28;96738;-90
2024/02/28 07:51:48;;;;;;;29.50;15.38;;;;;;;8.56;59.01;102179.97;4952102;28;96774;-90
2024/02/28 07:54:14;;;;;;;30.65;16.77;;;;;;;8.56;59.12;102185.19;4951830;28;100277;-90
2024/02/28 07:56:40;;;;;;;33.05;18.08;;;;;;;8.57;59.43;102180.84;4950888;28;100428;-90
2024/02/28 07:59:05;;;;;;;31.83;15.43;;;;;;;8.57;59.29;102191.25;4936207;28;96845;-90
2024/02/28 08:01:31;;;;;;;31.40;18.23;;;;;;;8.54;59.31;102189.44;4969664;28;96757;-90
2024/02/28 08:03:57;;;;;;;30.92;17.10;;;;;;;8.54;59.54;102193.75;4930256;28;99686;-90
2024/02/28 08:06:22;;;;;;;29.60;15.15;;;;;;;8.54;59.53;102192.03;4951161;28;99312;-90
2024/02/28 08:08:48;;;;;;;29.60;15.18;;;;;;;8.58;59.77;102195.66;4954576;28;96760;-91
2024/02/28 08:11:13;;;;;;;31.85;18.23;;;;;;;8.62;59.71;102199.28;4952002;28;96842;-91
2024/02/28 08:13:39;;;;;;;28.98;15.80;;;;;;;8.63;59.50;102198.44;4947918;28;96868;-89
2024/02/28 08:16:06;;;;;;;32.45;17.70;;;;;;;8.61;59.36;102207.88;4931733;28;99975;-89
2024/02/28 08:18:33;;;;;;;31.27;16.02;;;;;;;8.63;59.42;102211.44;4923968;28;96817;-90
2024/02/28 08:21:01;;;;;;;35.80;18.48;;;;;;;8.60;59.52;102214.81;4938609;28;96944;-90
2024/02/28 08:23:27;;;;;;;29.05;16.60;;;;;;;8.61;59.46;102215.69;4935965;28;100602;-90
2024/02/28 08:25:54;;;;;;;34.05;18.88;;;;;;;8.60;59.29;102219.13;4935298;28;100234;-90
2024/02/28 08:28:19;;;;;;;31.05;18.33;;;;;;;8.60;59.74;102213.94;4945436;28;96917;-88
2024/02/28 08:30:45;;;;;;;32.17;17.60;;;;;;;8.61;59.71;102215.69;4959616;28;97014;-89
2024/02/28 08:33:11;;;;;;;29.65;16.13;;;;;;;8.63;59.74;102221.84;4921040;28;99934;-88
2024/02/28 08:35:36;;;;;;;28.33;16.48;;;;;;;8.65;60.03;102215.00;4958073;28;100563;-89
2024/02/28 08:38:03;;;;;;;27.80;15.82;;;;;;;8.68;59.93;102217.72;4945977;28;96833;-89
2024/02/28 08:40:29;;;;;;;28.60;17.17;;;;;;;8.72;60.14;102215.31;4937628;28;96971;-89
2024/02/28 08:42:55;;;;;;;30.25;16.13;;;;;;;8.76;59.92;102222.44;4963056;28;99258;-88
2024/02/28 08:45:22;;;;;;;30.67;15.65;;;;;;;8.81;59.92;102230.44;4936268;28;97501;-88
2024/02/28 08:47:48;;;;;;;29.45;15.65;;;;;;;8.84;59.78;102220.16;4963616;28;97040;-88
2024/02/28 08:50:13;;;;;;;34.67;16.20;;;;;;;8.88;59.89;102224.66;4930776;28;96981;-89
2024/02/28 08:52:39;;;;;;;27.92;15.25;;;;;;;8.92;60.00;102226.56;4930093;28;99435;-89
2024/02/28 08:55:05;;;;;;;28.00;17.35;;;;;;;8.95;59.71;102223.22;4942286;28;100345;-89
2024/02/28 08:57:30;;;;;;;29.88;17.45;;;;;;;8.98;59.79;102218.09;4946372;28;96968;-89
2024/02/28 08:59:56;;;;;;;28.92;16.25;;;;;;;9.01;59.96;102227.78;4945290;28;97021;-89
2024/02/28 09:02:22;;;;;;;29.30;16.88;;;;;;;9.05;60.04;102224.47;4945297;28;101397;-89
2024/02/28 09:04:51;;;;;;;31.23;17.80;;;;;;;9.12;60.01;102221.28;4940062;28;100648;-89
2024/02/28 09:07:20;;;;;;;33.47;17.20;;;;;;;9.17;59.89;102224.97;4960179;28;97266;-88
2024/02/28 09:09:45;;;;;;;34.05;16.88;;;;;;;9.20;59.91;102225.09;4946281;28;97028;-89
2024/02/28 09:12:11;;;;;;;26.98;15.85;;;;;;;9.24;59.88;102208.75;4940958;28;100521;-90
2024/02/28 09:14:39;;;;;;;29.70;18.13;;;;;;;9.34;60.49;102208.31;4937480;28;99166;-90
2024/02/28 09:17:05;;;;;;;28.92;17.42;;;;;;;9.47;60.72;102209.66;4947764;28;96756;-89
2024/02/28 09:19:34;;;;;;;29.55;16.90;;;;;;;9.58;60.24;102198.78;4944861;28;96776;-91
2024/02/28 09:21:59;;;;;;;29.88;16.83;;;;;;;9.66;59.95;102197.34;4967751;28;100436;-89
2024/02/28 09:24:29;;;;;;;28.33;17.17;;;;;;;9.71;59.48;102203.63;4934464;28;98607;-90
2024/02/28 09:26:54;;;;;;;28.67;17.35;;;;;;;9.75;59.53;102215.03;4949826;28;96891;-89
2024/02/28 09:29:20;;;;;;;29.20;17.77;;;;;;;9.75;59.44;102210.75;4948994;28;96895;-90
2024/02/28 09:31:46;;;;;;;29.33;17.55;;;;;;;9.81;59.78;102221.38;4933880;28;100107;-89
2024/02/28 09:34:14;;;;;;;28.52;17.98;;;;;;;9.86;59.64;102216.34;4948202;28;99846;-89
2024/02/28 09:36:45;;;;;;;25.77;15.50;;;;;;;9.91;59.67;102215.69;4950725;28;96849;-89
2024/02/28 09:39:14;;;;;;;29.73;15.85;;;;;;;10.01;59.86;102216.03;4946101;28;97004;-90
2024/02/28 09:41:41;;;;;;;27.80;15.40;;;;;;;10.12;59.90;102206.84;4952295;28;100311;-89
2024/02/28 09:44:07;;;;;;;31.52;17.83;;;;;;;10.23;60.02;102205.56;4952479;28;97857;-89
2024/02/28 09:46:35;;;;;;;29.92;17.55;;;;;;;10.34;59.66;102213.78;4952632;28;96932;-91
2024/02/28 09:49:04;;;;;;;30.95;18.67;;;;;;;10.42;59.47;102222.75;4949339;28;96962;-90
2024/02/28 09:51:34;;;;;;;30.30;17.83;;;;;;;10.47;59.37;102225.53;4937267;28;100422;-91
2024/02/28 09:54:02;;;;;;;31.05;18.30;;;;;;;10.56;59.55;102222.38;4949910;28;99660;-91
2024/02/28 09:56:28;;;;;;;32.00;18.55;;;;;;;10.66;59.52;102227.06;4945621;28;96935;-90
2024/02/28 09:58:54;;;;;;;34.67;18.70;;;;;;;10.77;59.33;102236.13;4946169;28;96905;-88
2024/02/28 10:01:22;;;;;;;30.55;18.75;;;;;;;10.85;58.95;102244.22;4928152;28;99195;-88
2024/02/28 10:03:50;;;;;;;30.50;16.88;;;;;;;10.90;58.95;102244.38;4943732;28;99948;-89
2024/02/28 10:06:16;;;;;;;29.02;16.00;;;;;;;10.89;58.63;102246.13;4932598;28;96966;-90
2024/02/28 10:08:47;;;;;;;30.38;16.65;;;;;;;10.92;58.92;102240.09;4929813;28;96971;-91
2024/02/28 10:11:35;;;;;;;33.33;17.20;;;;;;;10.96;58.95;102234.13;4951150;28;99076;-90
2024/02/28 10:14:02;;;;;;;30.88;18.30;;;;;;;11.08;58.90;102231.06;4953100;28;99976;-90
2024/02/28 10:16:28;;;;;;;30.40;18.50;;;;;;;11.16;58.87;102229.59;4936687;28;96860;-89
2024/02/28 10:18:53;;;;;;;30.85;18.60;;;;;;;11.21;58.91;102223.66;4954297;28;96907;-89
2024/02/28 10:21:19;;;;;;;32.30;18.33;;;;;;;11.29;58.93;102231.75;4954021;28;102030;-90
2024/02/28 10:23:49;;;;;;;36.00;18.85;;;;;;;11.38;58.94;102224.19;4955644;28;100572;-90
2024/02/28 10:26:19;;;;;;;38.15;17.38;;;;;;;11.45;58.70;102216.56;4936734;28;97014;-89
2024/02/28 10:28:53;;;;;;;30.50;18.58;;;;;;;11.55;58.82;102219.50;4969629;28;96915;-88
2024/02/28 10:31:21;;;;;;;33.88;19.65;;;;;;;11.63;58.58;102212.75;4950256;28;96976;-88
2024/02/28 10:33:49;;;;;;;33.40;18.65;;;;;;;11.72;58.43;102217.38;4967116;28;98208;-89
2024/02/28 10:36:15;;;;;;;38.08;20.75;;;;;;;11.76;58.48;102223.59;4950561;28;96879;-88
2024/02/28 10:38:41;;;;;;;35.45;18.48;;;;;;;11.80;58.48;102222.84;4969464;28;97072;-88
2024/02/28 10:41:07;;;;;;;33.25;19.08;;;;;;;11.83;57.72;102215.06;4951831;28;100365;-89
2024/02/28 10:43:34;;;;;;;36.83;19.83;;;;;;;11.79;57.71;102213.22;4932112;28;100289;-90
2024/02/28 10:46:05;;;;;;;45.78;23.25;;;;;;;11.79;58.00;102208.00;4945080;28;96845;-91
2024/02/28 10:48:31;;;;;;;40.42;20.92;;;;;;;11.82;58.34;102208.09;4952890;28;96865;-90
2024/02/28 10:50:58;;;;;;;38.33;20.20;;;;;;;11.91;58.11;102215.34;4945786;28;100195;-89
2024/02/28 10:53:41;;;;;;;40.85;19.63;;;;;;;11.94;57.89;102212.81;4933405;28;100104;-90
2024/02/28 10:56:10;;;;;;;38.63;22.35;;;;;;;11.97;57.89;102208.56;4945964;28;96777;-89
2024/02/28 10:58:37;;;;;;;37.25;18.73;;;;;;;12.02;58.18;102205.19;4954164;28;96915;-89
2024/02/28 11:01:08;;;;;;;34.63;20.00;;;;;;;12.09;58.23;102204.53;4932530;28;100800;-90
2024/02/28 11:03:34;;;;;;;38.00;18.80;;;;;;;12.15;58.21;102205.56;4939713;28;99059;-90
2024/02/28 11:05:59;;;;;;;37.10;20.80;;;;;;;12.22;57.78;102203.13;4961615;28;96882;-89
2024/02/28 11:08:28;;;;;;;40.58;21.77;;;;;;;12.26;57.95;102200.63;4956729;28;96733;-90
2024/02/28 11:10:58;;;;;;;34.55;18.15;;;;;;;12.28;57.82;102204.19;4951872;28;99077;-90